Hanover, MD (21076)

2:27 AM EST on February 13, 2016 (GMT -0500)
Dorchester Woods | | Change Station
CLOSE
Current Station
Personal Weather Station
Location: Hanover, MD
Elevation: 171 ft
Nearby Weather Stations

Elev 171 ft 39.16 °N, 76.73 °W | Updated 5 minutes ago

Partly Cloudy
Partly Cloudy
20.8 °F
Feels Like 21 °F
N
1.7
Wind Variable Wind from West

Today
High -- | Low -- °F
--% Chance of Precip.
Yesterday
High -- | Low -- °F
Precip. -- in
Pressure 29.99 in
Visibility 10.0 miles
Clouds Few 9000 ft
Windchill 21 °F
Dew Point 16 °F
Humidity 80%
Rainfall 0.00 in
Snow Depth Not available.
7:01 AM 5:41 PM
Waxing Crescent, 28% visible
METAR KBWI 130654Z 26005KT 10SM FEW090 M07/M09 A2998 RMK AO2 SLP153 T10671094
Pressure 29.99 in
Visibility 10.0 miles
Clouds Few 9000 ft
Windchill 21 °F
Dew Point 16 °F
Humidity 80%
Rainfall 0.00 in
Snow Depth Not available.
7:01 AM 5:41 PM
Waxing Crescent, 28% visible
METAR KBWI 130654Z 26005KT 10SM FEW090 M07/M09 A2998 RMK AO2 SLP153 T10671094

10-Day Weather Forecast

Almanac

Astronomy

Feb. 13, 2016 Rise Set
Actual Time
Civil Twilight
Nautical Twilight
Astronomical Twilight
Moon
Length of Visible Light
Length of Day
Tomorrow will be .
, % of the Moon is Illuminated

Today's Extremes

State Highs State Lows

Community

WunderPhotos

Upload Photos

1,892,526 photos uploaded!

WunderBlog® & News

Nearby

Air Quality

  Air Quality AQ Index Pollutant
Not available.

Snow Depth

Station Depth Elevation

Earthquake Activity

City Distance Mag. Time & Date
Minimum magnitude displayed is 2.5.

Coastal Water Temperatures

Place Temperature

Stations

Nearby Weather Stations

Station Location Temp. Windchill Dew Point Humidity Wind Precip. Elev Updated Type
                   

Watches & Warnings

Wind Advisory
Issued: 11:51 PM EST Feb. 12, 2016 – National Weather Service

... Wind Advisory remains in effect from 3 am to 6 PM EST
Saturday...

* timing... late tonight through Saturday. Greatest wind threat
is Saturday morning through midday.

* Winds... northwest 20 to 30 mph with gusts around 50 mph.

* Impacts... scattered tree and power line damage. Difficulty
driving high profile vehicles.

Precautionary/preparedness actions...

A Wind Advisory means that wind gusts of 45 to 55 mph are
expected. Secure outdoor furniture and take care driving high
profile vehicles.